sensor_id;sensor_type;location;lat;lon;timestamp;P1;durP1;ratioP1;P2;durP2;ratioP2
6973;SDS011;3527;52.376;8.990;2023-04-25T00:00:54;14.23;;;6.30;;
6973;SDS011;3527;52.376;8.990;2023-04-25T00:03:21;18.20;;;7.30;;
6973;SDS011;3527;52.376;8.990;2023-04-25T00:05:49;14.27;;;6.23;;
6973;SDS011;3527;52.376;8.990;2023-04-25T00:08:16;15.80;;;6.93;;
6973;SDS011;3527;52.376;8.990;2023-04-25T00:10:43;14.50;;;7.20;;
6973;SDS011;3527;52.376;8.990;2023-04-25T00:13:10;13.13;;;6.27;;
6973;SDS011;3527;52.376;8.990;2023-04-25T00:15:37;10.77;;;6.60;;
6973;SDS011;3527;52.376;8.990;2023-04-25T00:18:05;17.97;;;7.33;;
6973;SDS011;3527;52.376;8.990;2023-04-25T00:20:32;12.97;;;6.33;;
6973;SDS011;3527;52.376;8.990;2023-04-25T00:22:59;14.90;;;7.30;;
6973;SDS011;3527;52.376;8.990;2023-04-25T00:25:26;14.47;;;6.80;;
6973;SDS011;3527;52.376;8.990;2023-04-25T00:27:53;16.30;;;6.63;;
6973;SDS011;3527;52.376;8.990;2023-04-25T00:30:19;10.47;;;6.17;;
6973;SDS011;3527;52.376;8.990;2023-04-25T00:32:46;11.93;;;6.53;;
6973;SDS011;3527;52.376;8.990;2023-04-25T00:35:13;14.30;;;6.67;;
6973;SDS011;3527;52.376;8.990;2023-04-25T00:37:39;17.87;;;6.83;;
6973;SDS011;3527;52.376;8.990;2023-04-25T00:40:07;12.53;;;7.43;;
6973;SDS011;3527;52.376;8.990;2023-04-25T00:42:34;13.80;;;6.53;;
6973;SDS011;3527;52.376;8.990;2023-04-25T00:45:04;16.77;;;7.30;;
6973;SDS011;3527;52.376;8.990;2023-04-25T00:47:32;14.33;;;7.10;;
6973;SDS011;3527;52.376;8.990;2023-04-25T00:49:59;20.10;;;7.60;;
6973;SDS011;3527;52.376;8.990;2023-04-25T00:52:26;19.67;;;7.57;;
6973;SDS011;3527;52.376;8.990;2023-04-25T00:54:53;15.90;;;7.70;;
6973;SDS011;3527;52.376;8.990;2023-04-25T00:57:20;15.70;;;8.07;;
6973;SDS011;3527;52.376;8.990;2023-04-25T00:59:47;15.17;;;7.73;;
6973;SDS011;3527;52.376;8.990;2023-04-25T01:02:14;16.07;;;8.27;;
6973;SDS011;3527;52.376;8.990;2023-04-25T01:04:41;15.07;;;7.53;;
6973;SDS011;3527;52.376;8.990;2023-04-25T01:07:08;14.17;;;7.90;;
6973;SDS011;3527;52.376;8.990;2023-04-25T01:09:36;17.47;;;7.87;;
6973;SDS011;3527;52.376;8.990;2023-04-25T01:12:03;18.03;;;7.80;;
6973;SDS011;3527;52.376;8.990;2023-04-25T01:14:30;19.30;;;8.40;;
6973;SDS011;3527;52.376;8.990;2023-04-25T01:16:56;19.27;;;8.87;;
6973;SDS011;3527;52.376;8.990;2023-04-25T01:19:24;18.63;;;8.17;;
6973;SDS011;3527;52.376;8.990;2023-04-25T01:21:51;17.47;;;8.53;;
6973;SDS011;3527;52.376;8.990;2023-04-25T01:24:18;17.40;;;9.33;;
6973;SDS011;3527;52.376;8.990;2023-04-25T01:26:45;13.40;;;7.97;;
6973;SDS011;3527;52.376;8.990;2023-04-25T01:29:19;15.37;;;8.37;;
6973;SDS011;3527;52.376;8.990;2023-04-25T01:31:46;12.50;;;8.33;;
6973;SDS011;3527;52.376;8.990;2023-04-25T01:34:13;11.97;;;8.33;;
6973;SDS011;3527;52.376;8.990;2023-04-25T01:36:40;16.00;;;6.47;;
6973;SDS011;3527;52.376;8.990;2023-04-25T01:39:07;15.00;;;6.70;;
6973;SDS011;3527;52.376;8.990;2023-04-25T01:41:37;17.83;;;7.07;;
6973;SDS011;3527;52.376;8.990;2023-04-25T01:44:04;18.47;;;7.17;;
6973;SDS011;3527;52.376;8.990;2023-04-25T01:46:32;17.37;;;6.50;;
6973;SDS011;3527;52.376;8.990;2023-04-25T01:49:00;20.77;;;6.10;;
6973;SDS011;3527;52.376;8.990;2023-04-25T01:51:27;10.13;;;5.00;;
6973;SDS011;3527;52.376;8.990;2023-04-25T01:53:54;19.47;;;5.00;;
6973;SDS011;3527;52.376;8.990;2023-04-25T01:56:21;17.40;;;5.90;;
6973;SDS011;3527;52.376;8.990;2023-04-25T01:58:48;11.10;;;4.80;;
6973;SDS011;3527;52.376;8.990;2023-04-25T02:01:15;16.90;;;5.13;;
6973;SDS011;3527;52.376;8.990;2023-04-25T02:03:42;16.17;;;5.10;;
6973;SDS011;3527;52.376;8.990;2023-04-25T02:06:10;20.17;;;5.63;;
6973;SDS011;3527;52.376;8.990;2023-04-25T02:08:36;17.90;;;6.27;;
6973;SDS011;3527;52.376;8.990;2023-04-25T02:11:03;12.33;;;5.10;;
6973;SDS011;3527;52.376;8.990;2023-04-25T02:13:30;20.00;;;5.27;;
6973;SDS011;3527;52.376;8.990;2023-04-25T02:15:57;17.33;;;6.07;;
6973;SDS011;3527;52.376;8.990;2023-04-25T02:18:24;19.83;;;6.17;;
6973;SDS011;3527;52.376;8.990;2023-04-25T02:20:52;16.70;;;5.47;;
6973;SDS011;3527;52.376;8.990;2023-04-25T02:23:19;16.53;;;5.77;;
6973;SDS011;3527;52.376;8.990;2023-04-25T02:25:46;17.80;;;6.10;;
6973;SDS011;3527;52.376;8.990;2023-04-25T02:28:13;14.33;;;5.87;;
6973;SDS011;3527;52.376;8.990;2023-04-25T02:30:40;14.67;;;6.33;;
6973;SDS011;3527;52.376;8.990;2023-04-25T02:33:07;16.70;;;5.87;;
6973;SDS011;3527;52.376;8.990;2023-04-25T02:35:33;15.30;;;5.40;;
6973;SDS011;3527;52.376;8.990;2023-04-25T02:38:00;15.33;;;5.47;;
6973;SDS011;3527;52.376;8.990;2023-04-25T02:40:27;19.80;;;6.07;;
6973;SDS011;3527;52.376;8.990;2023-04-25T02:42:54;18.57;;;6.50;;
6973;SDS011;3527;52.376;8.990;2023-04-25T02:45:20;23.83;;;6.80;;
6973;SDS011;3527;52.376;8.990;2023-04-25T02:47:47;21.30;;;6.37;;
6973;SDS011;3527;52.376;8.990;2023-04-25T02:50:14;18.20;;;5.57;;
6973;SDS011;3527;52.376;8.990;2023-04-25T02:52:41;17.33;;;6.30;;
6973;SDS011;3527;52.376;8.990;2023-04-25T02:55:08;17.63;;;5.83;;
6973;SDS011;3527;52.376;8.990;2023-04-25T02:57:35;21.50;;;5.93;;
6973;SDS011;3527;52.376;8.990;2023-04-25T03:00:02;27.03;;;7.10;;
6973;SDS011;3527;52.376;8.990;2023-04-25T03:02:31;23.37;;;5.50;;
6973;SDS011;3527;52.376;8.990;2023-04-25T03:04:57;16.17;;;5.30;;
6973;SDS011;3527;52.376;8.990;2023-04-25T03:07:24;27.63;;;6.40;;
6973;SDS011;3527;52.376;8.990;2023-04-25T03:09:51;18.20;;;5.57;;
6973;SDS011;3527;52.376;8.990;2023-04-25T03:12:18;19.33;;;6.53;;
6973;SDS011;3527;52.376;8.990;2023-04-25T03:14:46;27.90;;;6.47;;
6973;SDS011;3527;52.376;8.990;2023-04-25T03:17:13;22.97;;;6.73;;
6973;SDS011;3527;52.376;8.990;2023-04-25T03:19:39;17.57;;;6.63;;
6973;SDS011;3527;52.376;8.990;2023-04-25T03:22:06;19.13;;;6.00;;
6973;SDS011;3527;52.376;8.990;2023-04-25T03:24:33;19.43;;;6.00;;
6973;SDS011;3527;52.376;8.990;2023-04-25T03:27:00;17.07;;;6.23;;
6973;SDS011;3527;52.376;8.990;2023-04-25T03:29:26;22.23;;;6.63;;
6973;SDS011;3527;52.376;8.990;2023-04-25T03:31:55;23.87;;;6.67;;
6973;SDS011;3527;52.376;8.990;2023-04-25T03:34:21;16.37;;;5.67;;
6973;SDS011;3527;52.376;8.990;2023-04-25T03:36:48;21.63;;;6.10;;
6973;SDS011;3527;52.376;8.990;2023-04-25T03:39:15;15.10;;;5.70;;
6973;SDS011;3527;52.376;8.990;2023-04-25T03:41:42;21.83;;;5.80;;
6973;SDS011;3527;52.376;8.990;2023-04-25T03:44:09;20.37;;;6.00;;
6973;SDS011;3527;52.376;8.990;2023-04-25T03:46:35;18.80;;;6.07;;
6973;SDS011;3527;52.376;8.990;2023-04-25T03:49:02;20.13;;;6.20;;
6973;SDS011;3527;52.376;8.990;2023-04-25T03:51:29;21.73;;;6.23;;
6973;SDS011;3527;52.376;8.990;2023-04-25T03:53:57;20.90;;;5.70;;
6973;SDS011;3527;52.376;8.990;2023-04-25T03:56:24;17.53;;;5.90;;
6973;SDS011;3527;52.376;8.990;2023-04-25T03:58:51;20.00;;;5.77;;
6973;SDS011;3527;52.376;8.990;2023-04-25T04:01:18;18.07;;;5.90;;
6973;SDS011;3527;52.376;8.990;2023-04-25T04:03:46;18.53;;;6.37;;
6973;SDS011;3527;52.376;8.990;2023-04-25T04:06:14;19.23;;;5.13;;
6973;SDS011;3527;52.376;8.990;2023-04-25T04:08:41;15.93;;;5.87;;
6973;SDS011;3527;52.376;8.990;2023-04-25T04:11:07;18.50;;;6.23;;
6973;SDS011;3527;52.376;8.990;2023-04-25T04:13:35;16.67;;;5.53;;
6973;SDS011;3527;52.376;8.990;2023-04-25T04:16:15;21.53;;;5.97;;
6973;SDS011;3527;52.376;8.990;2023-04-25T04:18:46;16.70;;;5.53;;
6973;SDS011;3527;52.376;8.990;2023-04-25T04:21:32;15.73;;;5.50;;
6973;SDS011;3527;52.376;8.990;2023-04-25T04:24:19;20.40;;;5.30;;
6973;SDS011;3527;52.376;8.990;2023-04-25T04:26:47;17.97;;;6.00;;
6973;SDS011;3527;52.376;8.990;2023-04-25T04:29:18;19.03;;;5.60;;
6973;SDS011;3527;52.376;8.990;2023-04-25T04:32:07;21.90;;;5.23;;
6973;SDS011;3527;52.376;8.990;2023-04-25T04:34:35;19.20;;;5.87;;
6973;SDS011;3527;52.376;8.990;2023-04-25T04:37:02;19.67;;;5.53;;
6973;SDS011;3527;52.376;8.990;2023-04-25T04:39:29;22.90;;;5.30;;
6973;SDS011;3527;52.376;8.990;2023-04-25T04:41:56;15.47;;;5.43;;
6973;SDS011;3527;52.376;8.990;2023-04-25T04:44:23;12.00;;;5.03;;
6973;SDS011;3527;52.376;8.990;2023-04-25T04:46:49;15.00;;;5.13;;
6973;SDS011;3527;52.376;8.990;2023-04-25T04:49:17;19.33;;;5.70;;
6973;SDS011;3527;52.376;8.990;2023-04-25T04:51:43;23.90;;;5.70;;
6973;SDS011;3527;52.376;8.990;2023-04-25T04:54:10;20.80;;;6.13;;
6973;SDS011;3527;52.376;8.990;2023-04-25T04:56:37;21.47;;;5.30;;
6973;SDS011;3527;52.376;8.990;2023-04-25T04:59:04;19.97;;;5.00;;
6973;SDS011;3527;52.376;8.990;2023-04-25T05:01:31;19.13;;;5.33;;
6973;SDS011;3527;52.376;8.990;2023-04-25T05:03:58;16.60;;;5.47;;
6973;SDS011;3527;52.376;8.990;2023-04-25T05:06:29;17.87;;;4.70;;
6973;SDS011;3527;52.376;8.990;2023-04-25T05:08:57;18.23;;;4.93;;
6973;SDS011;3527;52.376;8.990;2023-04-25T05:11:24;15.77;;;5.50;;
6973;SDS011;3527;52.376;8.990;2023-04-25T05:13:51;22.40;;;5.60;;
6973;SDS011;3527;52.376;8.990;2023-04-25T05:16:19;21.70;;;5.57;;
6973;SDS011;3527;52.376;8.990;2023-04-25T05:18:46;13.87;;;4.67;;
6973;SDS011;3527;52.376;8.990;2023-04-25T05:21:14;11.67;;;5.00;;
6973;SDS011;3527;52.376;8.990;2023-04-25T05:23:40;21.07;;;6.13;;
6973;SDS011;3527;52.376;8.990;2023-04-25T05:26:07;18.17;;;5.43;;
6973;SDS011;3527;52.376;8.990;2023-04-25T05:28:40;15.60;;;5.23;;
6973;SDS011;3527;52.376;8.990;2023-04-25T05:31:09;19.07;;;5.20;;
6973;SDS011;3527;52.376;8.990;2023-04-25T05:33:36;17.40;;;5.17;;
6973;SDS011;3527;52.376;8.990;2023-04-25T05:36:03;13.33;;;5.20;;
6973;SDS011;3527;52.376;8.990;2023-04-25T05:38:31;13.33;;;5.53;;
6973;SDS011;3527;52.376;8.990;2023-04-25T05:41:00;15.70;;;5.50;;
6973;SDS011;3527;52.376;8.990;2023-04-25T05:43:27;14.37;;;5.47;;
6973;SDS011;3527;52.376;8.990;2023-04-25T05:45:53;13.17;;;4.83;;
6973;SDS011;3527;52.376;8.990;2023-04-25T05:48:21;19.07;;;5.30;;
6973;SDS011;3527;52.376;8.990;2023-04-25T05:50:48;20.27;;;6.53;;
6973;SDS011;3527;52.376;8.990;2023-04-25T05:53:15;15.40;;;4.50;;
6973;SDS011;3527;52.376;8.990;2023-04-25T05:55:41;17.00;;;5.67;;
6973;SDS011;3527;52.376;8.990;2023-04-25T05:58:08;17.03;;;6.23;;
6973;SDS011;3527;52.376;8.990;2023-04-25T06:00:35;18.03;;;5.70;;
6973;SDS011;3527;52.376;8.990;2023-04-25T06:03:02;19.67;;;4.97;;
6973;SDS011;3527;52.376;8.990;2023-04-25T06:05:29;11.83;;;4.53;;
6973;SDS011;3527;52.376;8.990;2023-04-25T06:07:56;11.53;;;4.30;;
6973;SDS011;3527;52.376;8.990;2023-04-25T06:10:24;14.70;;;4.60;;
6973;SDS011;3527;52.376;8.990;2023-04-25T06:12:51;15.93;;;5.23;;
6973;SDS011;3527;52.376;8.990;2023-04-25T06:15:19;14.27;;;5.30;;
6973;SDS011;3527;52.376;8.990;2023-04-25T06:17:55;13.83;;;4.30;;
6973;SDS011;3527;52.376;8.990;2023-04-25T06:20:22;18.83;;;4.67;;
6973;SDS011;3527;52.376;8.990;2023-04-25T06:22:50;14.10;;;4.77;;
6973;SDS011;3527;52.376;8.990;2023-04-25T06:25:20;13.77;;;4.40;;
6973;SDS011;3527;52.376;8.990;2023-04-25T06:27:47;15.83;;;4.37;;
6973;SDS011;3527;52.376;8.990;2023-04-25T06:30:14;14.83;;;4.17;;
6973;SDS011;3527;52.376;8.990;2023-04-25T06:32:42;15.90;;;4.67;;
6973;SDS011;3527;52.376;8.990;2023-04-25T06:35:09;9.30;;;3.83;;
6973;SDS011;3527;52.376;8.990;2023-04-25T06:37:36;16.10;;;4.07;;
6973;SDS011;3527;52.376;8.990;2023-04-25T06:40:04;15.43;;;4.50;;
6973;SDS011;3527;52.376;8.990;2023-04-25T06:42:31;18.80;;;4.07;;
6973;SDS011;3527;52.376;8.990;2023-04-25T06:44:58;16.40;;;4.90;;
6973;SDS011;3527;52.376;8.990;2023-04-25T06:47:26;12.13;;;3.80;;
6973;SDS011;3527;52.376;8.990;2023-04-25T06:49:53;10.90;;;3.43;;
6973;SDS011;3527;52.376;8.990;2023-04-25T06:52:19;10.67;;;3.70;;
6973;SDS011;3527;52.376;8.990;2023-04-25T06:54:46;13.77;;;3.80;;
6973;SDS011;3527;52.376;8.990;2023-04-25T06:57:13;10.47;;;3.20;;
6973;SDS011;3527;52.376;8.990;2023-04-25T06:59:40;14.93;;;4.07;;
6973;SDS011;3527;52.376;8.990;2023-04-25T07:02:06;11.47;;;3.17;;
6973;SDS011;3527;52.376;8.990;2023-04-25T07:04:33;11.77;;;3.43;;
6973;SDS011;3527;52.376;8.990;2023-04-25T07:07:00;9.37;;;3.30;;
6973;SDS011;3527;52.376;8.990;2023-04-25T07:09:29;9.90;;;3.07;;
6973;SDS011;3527;52.376;8.990;2023-04-25T07:11:56;12.37;;;3.50;;
6973;SDS011;3527;52.376;8.990;2023-04-25T07:14:23;16.87;;;3.57;;
6973;SDS011;3527;52.376;8.990;2023-04-25T07:16:50;10.93;;;3.17;;
6973;SDS011;3527;52.376;8.990;2023-04-25T07:19:17;13.37;;;3.10;;
6973;SDS011;3527;52.376;8.990;2023-04-25T07:21:43;9.43;;;3.10;;
6973;SDS011;3527;52.376;8.990;2023-04-25T07:24:10;10.93;;;2.97;;
6973;SDS011;3527;52.376;8.990;2023-04-25T07:26:37;12.23;;;2.83;;
6973;SDS011;3527;52.376;8.990;2023-04-25T07:29:04;11.07;;;3.10;;
6973;SDS011;3527;52.376;8.990;2023-04-25T07:31:31;11.10;;;3.60;;
6973;SDS011;3527;52.376;8.990;2023-04-25T07:33:57;11.53;;;3.63;;
6973;SDS011;3527;52.376;8.990;2023-04-25T07:36:27;10.40;;;3.47;;
6973;SDS011;3527;52.376;8.990;2023-04-25T07:38:54;10.07;;;2.97;;
6973;SDS011;3527;52.376;8.990;2023-04-25T07:41:21;7.80;;;3.00;;
6973;SDS011;3527;52.376;8.990;2023-04-25T07:43:48;9.53;;;3.60;;
6973;SDS011;3527;52.376;8.990;2023-04-25T07:46:15;8.63;;;3.33;;
6973;SDS011;3527;52.376;8.990;2023-04-25T07:48:41;8.90;;;3.03;;
6973;SDS011;3527;52.376;8.990;2023-04-25T07:51:08;13.50;;;3.83;;
6973;SDS011;3527;52.376;8.990;2023-04-25T07:53:35;8.50;;;3.03;;
6973;SDS011;3527;52.376;8.990;2023-04-25T07:56:04;13.43;;;3.90;;
6973;SDS011;3527;52.376;8.990;2023-04-25T07:58:31;11.83;;;3.20;;
6973;SDS011;3527;52.376;8.990;2023-04-25T08:00:57;13.47;;;3.60;;
6973;SDS011;3527;52.376;8.990;2023-04-25T08:03:24;11.00;;;3.50;;
6973;SDS011;3527;52.376;8.990;2023-04-25T08:05:51;10.13;;;3.77;;
6973;SDS011;3527;52.376;8.990;2023-04-25T08:08:18;10.40;;;3.53;;
6973;SDS011;3527;52.376;8.990;2023-04-25T08:10:45;13.10;;;3.50;;
6973;SDS011;3527;52.376;8.990;2023-04-25T08:13:14;8.67;;;2.90;;
6973;SDS011;3527;52.376;8.990;2023-04-25T08:15:41;10.20;;;3.03;;
6973;SDS011;3527;52.376;8.990;2023-04-25T08:18:08;11.67;;;3.40;;
6973;SDS011;3527;52.376;8.990;2023-04-25T08:20:35;11.50;;;3.27;;
6973;SDS011;3527;52.376;8.990;2023-04-25T08:23:02;8.37;;;3.17;;
6973;SDS011;3527;52.376;8.990;2023-04-25T08:25:29;8.27;;;3.37;;
6973;SDS011;3527;52.376;8.990;2023-04-25T08:27:55;10.10;;;3.53;;
6973;SDS011;3527;52.376;8.990;2023-04-25T08:30:23;11.20;;;2.93;;
6973;SDS011;3527;52.376;8.990;2023-04-25T08:32:50;11.03;;;2.90;;
6973;SDS011;3527;52.376;8.990;2023-04-25T08:35:17;13.70;;;3.00;;
6973;SDS011;3527;52.376;8.990;2023-04-25T08:37:44;9.30;;;2.93;;
6973;SDS011;3527;52.376;8.990;2023-04-25T08:40:11;7.90;;;2.77;;
6973;SDS011;3527;52.376;8.990;2023-04-25T08:42:41;9.90;;;3.07;;
6973;SDS011;3527;52.376;8.990;2023-04-25T08:45:09;7.87;;;2.57;;
6973;SDS011;3527;52.376;8.990;2023-04-25T08:47:37;7.10;;;2.40;;
6973;SDS011;3527;52.376;8.990;2023-04-25T08:50:06;11.60;;;2.70;;
6973;SDS011;3527;52.376;8.990;2023-04-25T08:52:37;7.13;;;2.20;;
6973;SDS011;3527;52.376;8.990;2023-04-25T08:55:12;7.37;;;2.70;;
6973;SDS011;3527;52.376;8.990;2023-04-25T08:57:40;9.23;;;3.00;;
6973;SDS011;3527;52.376;8.990;2023-04-25T09:00:09;6.10;;;2.17;;
6973;SDS011;3527;52.376;8.990;2023-04-25T09:02:39;7.17;;;2.33;;
6973;SDS011;3527;52.376;8.990;2023-04-25T09:05:06;8.80;;;2.50;;
6973;SDS011;3527;52.376;8.990;2023-04-25T09:07:36;9.03;;;2.43;;
6973;SDS011;3527;52.376;8.990;2023-04-25T09:10:03;7.50;;;2.40;;
6973;SDS011;3527;52.376;8.990;2023-04-25T09:12:30;6.40;;;2.10;;
6973;SDS011;3527;52.376;8.990;2023-04-25T09:15:05;11.23;;;2.77;;
6973;SDS011;3527;52.376;8.990;2023-04-25T09:17:37;7.17;;;2.60;;
6973;SDS011;3527;52.376;8.990;2023-04-25T09:22:35;8.43;;;2.43;;
6973;SDS011;3527;52.376;8.990;2023-04-25T09:25:09;9.40;;;2.07;;
6973;SDS011;3527;52.376;8.990;2023-04-25T09:27:48;5.97;;;2.03;;
6973;SDS011;3527;52.376;8.990;2023-04-25T09:30:17;9.47;;;2.40;;
6973;SDS011;3527;52.376;8.990;2023-04-25T09:32:44;7.40;;;2.37;;
6973;SDS011;3527;52.376;8.990;2023-04-25T09:35:11;7.17;;;2.07;;
6973;SDS011;3527;52.376;8.990;2023-04-25T09:37:49;5.97;;;1.83;;
6973;SDS011;3527;52.376;8.990;2023-04-25T09:40:17;4.80;;;1.90;;
6973;SDS011;3527;52.376;8.990;2023-04-25T09:42:44;3.73;;;1.73;;
6973;SDS011;3527;52.376;8.990;2023-04-25T09:45:14;6.43;;;2.33;;
6973;SDS011;3527;52.376;8.990;2023-04-25T09:47:41;7.67;;;2.13;;
6973;SDS011;3527;52.376;8.990;2023-04-25T09:50:14;10.47;;;2.60;;
6973;SDS011;3527;52.376;8.990;2023-04-25T09:52:42;8.70;;;2.33;;
6973;SDS011;3527;52.376;8.990;2023-04-25T09:55:09;5.83;;;2.07;;
6973;SDS011;3527;52.376;8.990;2023-04-25T09:57:36;6.97;;;2.47;;
6973;SDS011;3527;52.376;8.990;2023-04-25T10:00:07;6.97;;;2.33;;
6973;SDS011;3527;52.376;8.990;2023-04-25T10:02:38;5.90;;;2.77;;
6973;SDS011;3527;52.376;8.990;2023-04-25T10:05:09;9.00;;;2.43;;
6973;SDS011;3527;52.376;8.990;2023-04-25T10:07:37;6.70;;;2.63;;
6973;SDS011;3527;52.376;8.990;2023-04-25T10:10:05;7.87;;;1.83;;
6973;SDS011;3527;52.376;8.990;2023-04-25T10:12:32;7.23;;;1.90;;
6973;SDS011;3527;52.376;8.990;2023-04-25T10:15:00;5.63;;;1.60;;
6973;SDS011;3527;52.376;8.990;2023-04-25T10:17:29;5.20;;;2.03;;
6973;SDS011;3527;52.376;8.990;2023-04-25T10:19:58;5.93;;;1.90;;
6973;SDS011;3527;52.376;8.990;2023-04-25T10:22:29;4.50;;;2.07;;
6973;SDS011;3527;52.376;8.990;2023-04-25T10:25:00;6.23;;;1.90;;
6973;SDS011;3527;52.376;8.990;2023-04-25T10:27:30;5.50;;;1.67;;
6973;SDS011;3527;52.376;8.990;2023-04-25T10:30:04;6.23;;;2.00;;
6973;SDS011;3527;52.376;8.990;2023-04-25T10:32:39;6.67;;;2.10;;
6973;SDS011;3527;52.376;8.990;2023-04-25T10:35:15;8.03;;;2.03;;
6973;SDS011;3527;52.376;8.990;2023-04-25T10:37:57;6.77;;;2.03;;
6973;SDS011;3527;52.376;8.990;2023-04-25T10:40:30;7.70;;;2.20;;
6973;SDS011;3527;52.376;8.990;2023-04-25T10:51:26;7.93;;;1.90;;
6973;SDS011;3527;52.376;8.990;2023-04-25T10:54:18;4.80;;;1.87;;
6973;SDS011;3527;52.376;8.990;2023-04-25T10:56:48;5.50;;;1.67;;
6973;SDS011;3527;52.376;8.990;2023-04-25T10:59:16;4.93;;;1.97;;
6973;SDS011;3527;52.376;8.990;2023-04-25T11:01:45;4.73;;;1.70;;
6973;SDS011;3527;52.376;8.990;2023-04-25T11:09:50;3.70;;;1.70;;
6973;SDS011;3527;52.376;8.990;2023-04-25T11:12:16;5.43;;;1.90;;
6973;SDS011;3527;52.376;8.990;2023-04-25T11:14:43;4.07;;;2.00;;
6973;SDS011;3527;52.376;8.990;2023-04-25T11:17:10;3.90;;;1.63;;
6973;SDS011;3527;52.376;8.990;2023-04-25T11:19:38;8.10;;;2.13;;
6973;SDS011;3527;52.376;8.990;2023-04-25T11:22:05;10.73;;;3.00;;
6973;SDS011;3527;52.376;8.990;2023-04-25T11:24:34;6.07;;;1.70;;
6973;SDS011;3527;52.376;8.990;2023-04-25T11:27:02;3.80;;;1.60;;
6973;SDS011;3527;52.376;8.990;2023-04-25T11:29:30;3.23;;;1.27;;
6973;SDS011;3527;52.376;8.990;2023-04-25T11:31:58;4.97;;;1.30;;
6973;SDS011;3527;52.376;8.990;2023-04-25T11:34:27;3.20;;;1.03;;
6973;SDS011;3527;52.376;8.990;2023-04-25T11:36:57;1.93;;;1.27;;
6973;SDS011;3527;52.376;8.990;2023-04-25T11:39:24;20.43;;;5.90;;
6973;SDS011;3527;52.376;8.990;2023-04-25T11:41:52;5.90;;;1.83;;
6973;SDS011;3527;52.376;8.990;2023-04-25T11:44:20;5.73;;;1.53;;
6973;SDS011;3527;52.376;8.990;2023-04-25T11:46:47;3.83;;;1.50;;
6973;SDS011;3527;52.376;8.990;2023-04-25T11:49:14;4.30;;;1.60;;
6973;SDS011;3527;52.376;8.990;2023-04-25T11:51:42;6.63;;;1.50;;
6973;SDS011;3527;52.376;8.990;2023-04-25T11:54:10;4.50;;;1.87;;
6973;SDS011;3527;52.376;8.990;2023-04-25T11:56:44;6.07;;;2.00;;
6973;SDS011;3527;52.376;8.990;2023-04-25T11:59:12;8.33;;;2.03;;
6973;SDS011;3527;52.376;8.990;2023-04-25T12:01:47;4.03;;;1.63;;
6973;SDS011;3527;52.376;8.990;2023-04-25T12:04:16;9.17;;;1.93;;
6973;SDS011;3527;52.376;8.990;2023-04-25T12:06:46;3.87;;;1.27;;
6973;SDS011;3527;52.376;8.990;2023-04-25T12:09:15;4.83;;;1.50;;
6973;SDS011;3527;52.376;8.990;2023-04-25T12:11:45;3.13;;;1.20;;
6973;SDS011;3527;52.376;8.990;2023-04-25T12:14:23;5.37;;;1.53;;
6973;SDS011;3527;52.376;8.990;2023-04-25T12:17:00;3.93;;;1.23;;
6973;SDS011;3527;52.376;8.990;2023-04-25T12:19:32;3.37;;;1.60;;
6973;SDS011;3527;52.376;8.990;2023-04-25T12:22:10;3.57;;;1.60;;
6973;SDS011;3527;52.376;8.990;2023-04-25T12:24:46;2.57;;;1.37;;
6973;SDS011;3527;52.376;8.990;2023-04-25T12:27:14;4.30;;;1.40;;
6973;SDS011;3527;52.376;8.990;2023-04-25T12:29:55;4.00;;;1.60;;
6973;SDS011;3527;52.376;8.990;2023-04-25T12:32:23;9.77;;;1.90;;
6973;SDS011;3527;52.376;8.990;2023-04-25T12:34:50;3.73;;;1.47;;
6973;SDS011;3527;52.376;8.990;2023-04-25T12:37:16;3.03;;;1.40;;
6973;SDS011;3527;52.376;8.990;2023-04-25T12:39:43;4.53;;;1.83;;
6973;SDS011;3527;52.376;8.990;2023-04-25T12:42:10;5.07;;;2.27;;
6973;SDS011;3527;52.376;8.990;2023-04-25T12:44:40;6.07;;;1.60;;
6973;SDS011;3527;52.376;8.990;2023-04-25T12:47:07;5.53;;;1.77;;
6973;SDS011;3527;52.376;8.990;2023-04-25T12:49:34;6.83;;;1.77;;
6973;SDS011;3527;52.376;8.990;2023-04-25T12:52:01;5.50;;;1.83;;
6973;SDS011;3527;52.376;8.990;2023-04-25T12:54:28;4.50;;;1.50;;
6973;SDS011;3527;52.376;8.990;2023-04-25T12:56:55;4.27;;;1.63;;
6973;SDS011;3527;52.376;8.990;2023-04-25T12:59:22;4.17;;;1.63;;
6973;SDS011;3527;52.376;8.990;2023-04-25T13:01:49;5.83;;;2.23;;
6973;SDS011;3527;52.376;8.990;2023-04-25T13:04:16;4.53;;;1.50;;
6973;SDS011;3527;52.376;8.990;2023-04-25T13:06:44;3.13;;;1.50;;
6973;SDS011;3527;52.376;8.990;2023-04-25T13:09:11;12.00;;;2.50;;
6973;SDS011;3527;52.376;8.990;2023-04-25T13:11:39;4.30;;;1.50;;
6973;SDS011;3527;52.376;8.990;2023-04-25T13:14:07;6.87;;;1.63;;
6973;SDS011;3527;52.376;8.990;2023-04-25T13:16:34;3.10;;;1.50;;
6973;SDS011;3527;52.376;8.990;2023-04-25T13:19:01;3.07;;;1.90;;
6973;SDS011;3527;52.376;8.990;2023-04-25T13:21:29;4.30;;;1.70;;
6973;SDS011;3527;52.376;8.990;2023-04-25T13:23:58;4.97;;;1.70;;
6973;SDS011;3527;52.376;8.990;2023-04-25T13:26:28;4.27;;;1.60;;
6973;SDS011;3527;52.376;8.990;2023-04-25T13:28:55;2.63;;;1.50;;
6973;SDS011;3527;52.376;8.990;2023-04-25T13:31:22;3.63;;;1.73;;
6973;SDS011;3527;52.376;8.990;2023-04-25T13:33:49;4.83;;;1.80;;
6973;SDS011;3527;52.376;8.990;2023-04-25T13:36:16;6.27;;;1.80;;
6973;SDS011;3527;52.376;8.990;2023-04-25T13:38:43;3.40;;;1.33;;
6973;SDS011;3527;52.376;8.990;2023-04-25T13:41:11;4.47;;;1.83;;
6973;SDS011;3527;52.376;8.990;2023-04-25T13:43:42;2.67;;;1.23;;
6973;SDS011;3527;52.376;8.990;2023-04-25T13:46:10;5.10;;;1.60;;
6973;SDS011;3527;52.376;8.990;2023-04-25T13:48:58;2.57;;;1.60;;
6973;SDS011;3527;52.376;8.990;2023-04-25T13:51:37;4.83;;;1.60;;
6973;SDS011;3527;52.376;8.990;2023-04-25T13:54:03;3.67;;;1.33;;
6973;SDS011;3527;52.376;8.990;2023-04-25T13:56:30;2.83;;;1.30;;
6973;SDS011;3527;52.376;8.990;2023-04-25T13:58:57;8.70;;;1.50;;
6973;SDS011;3527;52.376;8.990;2023-04-25T14:01:24;3.10;;;1.10;;
6973;SDS011;3527;52.376;8.990;2023-04-25T14:03:51;4.37;;;1.20;;
6973;SDS011;3527;52.376;8.990;2023-04-25T14:06:18;3.80;;;1.40;;
6973;SDS011;3527;52.376;8.990;2023-04-25T14:08:52;4.23;;;1.40;;
6973;SDS011;3527;52.376;8.990;2023-04-25T14:11:19;3.77;;;1.30;;
6973;SDS011;3527;52.376;8.990;2023-04-25T14:13:46;4.67;;;1.70;;
6973;SDS011;3527;52.376;8.990;2023-04-25T14:16:15;3.53;;;1.23;;
6973;SDS011;3527;52.376;8.990;2023-04-25T14:18:42;3.37;;;1.37;;
6973;SDS011;3527;52.376;8.990;2023-04-25T14:21:09;3.13;;;1.47;;
6973;SDS011;3527;52.376;8.990;2023-04-25T14:23:36;5.27;;;1.60;;
6973;SDS011;3527;52.376;8.990;2023-04-25T14:26:02;4.47;;;1.40;;
6973;SDS011;3527;52.376;8.990;2023-04-25T14:28:29;3.40;;;1.40;;
6973;SDS011;3527;52.376;8.990;2023-04-25T14:30:57;3.47;;;1.57;;
6973;SDS011;3527;52.376;8.990;2023-04-25T14:33:24;3.07;;;1.43;;
6973;SDS011;3527;52.376;8.990;2023-04-25T14:35:51;9.07;;;1.67;;
6973;SDS011;3527;52.376;8.990;2023-04-25T14:38:18;3.50;;;1.60;;
6973;SDS011;3527;52.376;8.990;2023-04-25T14:40:49;4.23;;;1.10;;
6973;SDS011;3527;52.376;8.990;2023-04-25T14:43:16;2.63;;;1.20;;
6973;SDS011;3527;52.376;8.990;2023-04-25T14:45:43;4.27;;;1.30;;
6973;SDS011;3527;52.376;8.990;2023-04-25T14:48:10;3.70;;;1.67;;
6973;SDS011;3527;52.376;8.990;2023-04-25T14:50:36;3.13;;;1.40;;
6973;SDS011;3527;52.376;8.990;2023-04-25T14:53:03;2.37;;;1.40;;
6973;SDS011;3527;52.376;8.990;2023-04-25T14:55:30;6.07;;;1.67;;
6973;SDS011;3527;52.376;8.990;2023-04-25T14:57:57;3.67;;;1.60;;
6973;SDS011;3527;52.376;8.990;2023-04-25T15:00:24;2.80;;;1.40;;
6973;SDS011;3527;52.376;8.990;2023-04-25T15:02:51;5.67;;;1.67;;
6973;SDS011;3527;52.376;8.990;2023-04-25T15:05:19;2.70;;;1.23;;
6973;SDS011;3527;52.376;8.990;2023-04-25T15:07:46;3.60;;;1.50;;
6973;SDS011;3527;52.376;8.990;2023-04-25T15:10:14;3.60;;;1.70;;
6973;SDS011;3527;52.376;8.990;2023-04-25T15:12:42;4.47;;;1.47;;
6973;SDS011;3527;52.376;8.990;2023-04-25T15:15:12;2.97;;;1.70;;
6973;SDS011;3527;52.376;8.990;2023-04-25T15:17:50;5.33;;;1.67;;
6973;SDS011;3527;52.376;8.990;2023-04-25T15:20:17;2.53;;;1.60;;
6973;SDS011;3527;52.376;8.990;2023-04-25T15:22:44;6.30;;;2.57;;
6973;SDS011;3527;52.376;8.990;2023-04-25T15:25:15;4.00;;;1.87;;
6973;SDS011;3527;52.376;8.990;2023-04-25T15:27:46;4.30;;;2.10;;
6973;SDS011;3527;52.376;8.990;2023-04-25T15:30:15;5.00;;;1.97;;